Thorsby, AL (35171)

07:46 PM CDT am 19. April 2015 (GMT -0500)
Shelby County | | Change Station
CLOSE
Current Station
Flughafen
Location: Alabaster,
Höhe: 584 ft
Wetterstationen in der Umgebung

Höhe 584 ft 33.18 °N, 86.78 °W | Updated 53 minutes ago

Heiter
Heiter
75 °F
gefühlte 75 °F
N
6
Wind Wechselnd Wind aus West-Südwest

Heute
Max. -- | schwach -- °F
--% Regenrisiko
Gestern
Max. -- | schwach -- °F
Precip. -- inch
6:12 AM 7:20 PM
Neumond, 2% visible
Druck 29.70 inch
Sichtweite 10.0 Meilen
Wolken Heiter
Taupunkt 59 °F
Feuchtigkeit 57%
Regen 0.75 inch
Schneehöhe Nicht verfügbar..
UV 0 von 12
Pollen 5.80 von 12
Luftqualität Nicht verfügbar..
Flu Activity Sporadic
METAR KEET 192353Z AUTO 25005KT 10SM CLR 24/15 A2972 RMK AO2 SLP057 T02390150 10261 20233 51014

More Conditions Fewer Conditions

Druck 29.70 inch
Sichtweite 10.0 Meilen
Wolken Heiter
Taupunkt 59 °F
Feuchtigkeit 57%
Regen 0.75 inch
Schneehöhe Nicht verfügbar..
UV 0 von 12
Pollen 5.80 von 12
Luftqualität Nicht verfügbar..
Flu Activity Sporadic
METAR KEET 192353Z AUTO 25005KT 10SM CLR 24/15 A2972 RMK AO2 SLP057 T02390150 10261 20233 51014

More Conditions Fewer Conditions

10-Day Weather Forecast

Almanac

Astronomie

Apr. 19, 2015 Aufgang Untergang
Genaue Zeit
Bürgerliche Dämmerung
Nautische Dämmerung
Astronomische Dämmerung
Mond
Länge des sichtbaren Lichts
Tageslänge
Tomorrow will be .
, % of the Moon is Illuminated

Heutige Rekorde

State Highs State Lows

Community

WunderPhotos

Upload Photos

1,815,065 Fotos hochgeladen!

WunderBlogs® & News

Nearby

Luftqualität

  Luftqualität LQ Index Schadstoff
Not available.

Schneehöhe

Station Depth Höhe

Erdbebenaktivität

Stadt Distance Mag. Time & Date
Minimum magnitude displayed is 2.5.

küstennahe Wassertemperaturen

Ort Temperatur

Stations

Wetterstationen in der Umgebung

Stationsstandort Temp. Windchill Taupunkt Feuchtigkeit Wind Precip. Höhe Aktualisiert Art